Observations for FOGGIA GINO LISA (LIBF)

LIBF 241550Z 33017KT 9999 FEW040 26/19 Q1014
LIBF 241450Z 34016KT 9999 FEW040 28/17 Q1013
LIBF 241350Z 33010KT 9999 FEW035 30/15 Q1013
LIBF 241250Z 31007KT 240V340 9999 FEW035 30/16 Q1013
LIBF 241150Z 34005KT 9999 SCT030 29/16 Q1013
LIBF 241050Z 35006KT 320V050 9999 FEW035 29/16 Q1013
LIBF 240950Z 30010KT 9999 FEW035 29/15 Q1013
LIBF 240850Z 28014KT CAVOK 28/17 Q1013  
LIBF 240750Z 26016KT CAVOK 27/18 Q1013  
LIBF 240650Z 25009KT CAVOK 26/18 Q1013